Time;durP1;ratioP1;P1;durP2;ratioP2;P2;SDS_P1;SDS_P2;PMS_P1;PMS_P2;Temp;Humidity;BMP_temperature;BMP_pressure;BME280_temperature;BME280_humidity;BME280_pressure;Samples;Min_cycle;Max_cycle;Signal;HPM_P1;HPM_P2
2023/01/13 00:00:05;;;;;;;12.40;6.80;;;;;;;;;;4974269;28;20043;-72
2023/01/13 00:02:37;;;;;;;11.07;6.30;;;;;;;;;;4957823;28;20074;-72
2023/01/13 00:05:02;;;;;;;8.68;5.50;;;;;;;;;;4956994;28;20070;-71
2023/01/13 00:07:27;;;;;;;6.32;5.03;;;;;;;;;;4974154;28;20118;-71
2023/01/13 00:09:53;;;;;;;7.40;5.13;;;;;;;;;;4974296;28;20505;-71
2023/01/13 00:12:18;;;;;;;9.60;5.60;;;;;;;;;;4973008;28;20054;-71
2023/01/13 00:14:43;;;;;;;8.70;5.63;;;;;;;;;;4974288;28;20038;-75
2023/01/13 00:17:09;;;;;;;8.57;5.57;;;;;;;;;;4974201;28;20045;-75
2023/01/13 00:19:35;;;;;;;10.40;5.68;;;;;;;;;;4974107;28;20120;-75
2023/01/13 00:22:01;;;;;;;8.88;5.57;;;;;;;;;;4974231;28;20070;-74
2023/01/13 00:24:26;;;;;;;10.23;5.80;;;;;;;;;;4974148;28;20121;-74
2023/01/13 00:26:51;;;;;;;11.60;6.53;;;;;;;;;;4974147;28;20043;-73
2023/01/13 00:29:17;;;;;;;8.75;5.25;;;;;;;;;;4956660;28;20039;-73
2023/01/13 00:31:42;;;;;;;9.13;5.30;;;;;;;;;;4974072;28;20034;-73
2023/01/13 00:34:07;;;;;;;8.25;5.07;;;;;;;;;;4974126;28;20046;-73
2023/01/13 00:36:32;;;;;;;7.82;5.13;;;;;;;;;;4956812;28;20053;-73
2023/01/13 00:38:58;;;;;;;10.98;5.45;;;;;;;;;;4973906;28;20035;-73
2023/01/13 00:41:24;;;;;;;10.02;6.45;;;;;;;;;;4973953;28;20471;-73
2023/01/13 00:43:50;;;;;;;13.30;7.57;;;;;;;;;;4973965;28;20053;-73
2023/01/13 00:46:16;;;;;;;11.35;6.80;;;;;;;;;;4956768;28;20479;-73
2023/01/13 00:48:41;;;;;;;12.25;7.30;;;;;;;;;;4973905;28;20046;-73
2023/01/13 00:51:09;;;;;;;15.73;8.30;;;;;;;;;;4956532;28;20125;-73
2023/01/13 00:53:36;;;;;;;13.55;7.90;;;;;;;;;;4973885;28;20043;-73
2023/01/13 00:56:03;;;;;;;9.95;5.95;;;;;;;;;;4973901;28;20035;-73
2023/01/13 00:58:30;;;;;;;8.77;5.10;;;;;;;;;;4956847;28;20054;-73
2023/01/13 01:00:58;;;;;;;5.95;4.70;;;;;;;;;;4960079;28;20217;-73
2023/01/13 01:03:23;;;;;;;4.80;3.95;;;;;;;;;;4977318;28;20033;-72
2023/01/13 01:05:49;;;;;;;6.53;4.30;;;;;;;;;;4977124;28;20038;-72
2023/01/13 01:08:14;;;;;;;4.72;4.00;;;;;;;;;;4977283;28;20046;-73
2023/01/13 01:10:39;;;;;;;5.53;4.10;;;;;;;;;;4959879;28;20038;-72
2023/01/13 01:13:04;;;;;;;5.68;4.72;;;;;;;;;;4977240;28;20114;-72
2023/01/13 01:15:31;;;;;;;9.20;5.25;;;;;;;;;;4977188;28;20042;-72
2023/01/13 01:17:56;;;;;;;7.72;4.82;;;;;;;;;;4977026;28;20475;-72
2023/01/13 01:20:21;;;;;;;5.80;4.57;;;;;;;;;;4976985;28;20031;-72
2023/01/13 01:22:46;;;;;;;5.78;3.83;;;;;;;;;;4977117;28;20391;-72
2023/01/13 01:25:13;;;;;;;4.75;4.20;;;;;;;;;;4976926;28;20043;-71
2023/01/13 01:27:38;;;;;;;4.20;3.70;;;;;;;;;;4959518;28;20039;-72
2023/01/13 01:30:04;;;;;;;4.57;3.45;;;;;;;;;;4976901;28;20035;-73
2023/01/13 01:32:32;;;;;;;4.60;3.55;;;;;;;;;;4959529;28;20051;-73
2023/01/13 01:34:57;;;;;;;4.43;3.17;;;;;;;;;;4976754;28;20089;-73
2023/01/13 01:37:22;;;;;;;5.40;4.07;;;;;;;;;;4959553;28;20117;-76
2023/01/13 01:39:48;;;;;;;5.20;3.80;;;;;;;;;;4976629;28;20046;-75
2023/01/13 01:45:00;;;;;;;4.13;3.10;;;;;;;;;;4975694;28;20127;-74
2023/01/13 01:47:26;;;;;;;4.88;3.75;;;;;;;;;;4959175;28;20042;-74
2023/01/13 01:49:52;;;;;;;4.38;3.13;;;;;;;;;;4976518;28;20450;-74
2023/01/13 01:52:26;;;;;;;5.35;3.33;;;;;;;;;;4976421;28;20125;-74
2023/01/13 01:55:24;;;;;;;3.88;3.10;;;;;;;;;;4959160;28;20047;-74
2023/01/13 01:57:49;;;;;;;4.28;3.53;;;;;;;;;;4954298;28;20050;-73
2023/01/13 02:00:15;;;;;;;3.40;3.00;;;;;;;;;;4976236;28;20043;-73
2023/01/13 02:02:41;;;;;;;4.28;3.25;;;;;;;;;;4976300;28;20080;-73
2023/01/13 02:05:07;;;;;;;4.47;3.10;;;;;;;;;;4976249;28;20030;-73
2023/01/13 02:07:33;;;;;;;3.28;2.97;;;;;;;;;;4976022;28;20057;-73
2023/01/13 02:10:01;;;;;;;3.50;2.70;;;;;;;;;;4974863;28;20066;-74
2023/01/13 02:12:33;;;;;;;4.32;3.20;;;;;;;;;;4958583;28;20038;-73
2023/01/13 02:15:03;;;;;;;4.25;3.15;;;;;;;;;;4976322;28;20042;-74
2023/01/13 02:17:37;;;;;;;3.75;3.17;;;;;;;;;;4976020;28;20043;-73
2023/01/13 02:20:15;;;;;;;3.65;2.97;;;;;;;;;;4975920;28;20050;-75
2023/01/13 02:22:43;;;;;;;3.40;2.92;;;;;;;;;;4975894;28;20050;-75
2023/01/13 02:25:32;;;;;;;4.22;3.10;;;;;;;;;;4975871;28;20037;-75
2023/01/13 02:28:09;;;;;;;3.13;2.65;;;;;;;;;;4975718;28;20038;-75
2023/01/13 02:34:12;;;;;;;3.90;2.80;;;;;;;;;;4975590;28;20113;-72
2023/01/13 02:36:37;;;;;;;3.38;3.08;;;;;;;;;;4941820;28;20078;-72
2023/01/13 02:39:10;;;;;;;3.70;2.95;;;;;;;;;;4975539;28;20050;-72
2023/01/13 02:44:39;;;;;;;3.90;3.28;;;;;;;;;;4975447;28;20074;-73
2023/01/13 02:47:09;;;;;;;3.88;3.50;;;;;;;;;;4975468;28;20400;-75
2023/01/13 02:49:42;;;;;;;4.45;3.30;;;;;;;;;;4975404;28;20041;-75
2023/01/13 02:52:10;;;;;;;3.70;3.33;;;;;;;;;;4975551;28;20047;-74
2023/01/13 02:54:38;;;;;;;4.20;3.80;;;;;;;;;;4975279;28;20073;-74
2023/01/13 02:57:04;;;;;;;4.22;3.25;;;;;;;;;;4975263;28;20174;-74
2023/01/13 02:59:30;;;;;;;4.05;3.63;;;;;;;;;;4999159;22;20081;-72
2023/01/13 03:01:56;;;;;;;5.25;3.80;;;;;;;;;;5009454;23;20053;-72
2023/01/13 03:04:40;;;;;;;3.92;3.28;;;;;;;;;;5034036;28;20492;-71
2023/01/13 03:07:11;;;;;;;4.70;3.90;;;;;;;;;;5033816;28;20037;-71
2023/01/13 03:09:43;;;;;;;4.72;3.95;;;;;;;;;;5033682;28;20547;-71
2023/01/13 03:12:25;;;;;;;5.53;4.30;;;;;;;;;;5033784;28;20083;-72
2023/01/13 03:14:59;;;;;;;5.25;4.40;;;;;;;;;;5033748;28;20037;-72
2023/01/13 03:17:30;;;;;;;5.10;4.05;;;;;;;;;;5015993;28;20492;-72
2023/01/13 03:20:06;;;;;;;5.18;4.00;;;;;;;;;;5033532;28;20493;-72
2023/01/13 03:22:47;;;;;;;5.30;4.43;;;;;;;;;;5031617;28;20120;-74
2023/01/13 03:25:17;;;;;;;4.78;3.83;;;;;;;;;;5033555;28;20076;-72
2023/01/13 03:27:55;;;;;;;6.82;4.47;;;;;;;;;;5033565;28;20091;-72
2023/01/13 03:30:35;;;;;;;6.05;4.32;;;;;;;;;;5033502;28;20378;-72
2023/01/13 03:33:05;;;;;;;5.10;4.43;;;;;;;;;;5032221;28;20045;-72
2023/01/13 03:35:36;;;;;;;6.28;4.97;;;;;;;;;;5032318;28;20061;-72
2023/01/13 03:38:05;;;;;;;6.05;5.00;;;;;;;;;;5033432;28;20404;-72
2023/01/13 03:41:00;;;;;;;6.10;4.38;;;;;;;;;;5031986;28;20452;-72
2023/01/13 03:46:18;;;;;;;5.05;4.13;;;;;;;;;;5033275;28;20061;-73
2023/01/13 03:48:45;;;;;;;4.85;4.38;;;;;;;;;;5033265;28;20124;-73
2023/01/13 03:51:14;;;;;;;5.28;4.57;;;;;;;;;;5033259;28;20057;-72
2023/01/13 03:53:44;;;;;;;5.38;4.68;;;;;;;;;;5033148;28;20481;-72
2023/01/13 03:56:14;;;;;;;4.68;4.20;;;;;;;;;;5032029;28;20042;-71
2023/01/13 03:58:41;;;;;;;5.50;4.05;;;;;;;;;;5015383;28;20093;-71
2023/01/13 04:01:09;;;;;;;3.85;3.42;;;;;;;;;;5033039;28;20038;-70
2023/01/13 04:03:40;;;;;;;4.85;3.83;;;;;;;;;;5033074;28;20124;-70
2023/01/13 04:06:18;;;;;;;4.13;3.72;;;;;;;;;;5033082;28;20043;-70
2023/01/13 04:08:51;;;;;;;4.07;3.65;;;;;;;;;;5033113;28;20091;-71
2023/01/13 04:11:18;;;;;;;5.28;3.65;;;;;;;;;;5033000;28;20042;-72
2023/01/13 04:13:45;;;;;;;3.83;3.15;;;;;;;;;;5033059;28;20041;-72
2023/01/13 04:16:11;;;;;;;3.70;3.38;;;;;;;;;;5031881;28;20104;-71
2023/01/13 04:18:37;;;;;;;4.38;3.30;;;;;;;;;;5031534;28;20504;-72
2023/01/13 04:21:02;;;;;;;3.25;2.95;;;;;;;;;;5032933;28;20029;-73
2023/01/13 04:23:28;;;;;;;3.20;2.78;;;;;;;;;;5032964;28;20034;-73
2023/01/13 04:25:54;;;;;;;3.58;2.92;;;;;;;;;;5015317;28;20037;-73
2023/01/13 04:28:19;;;;;;;3.15;2.95;;;;;;;;;;5031630;28;20440;-72
2023/01/13 04:30:45;;;;;;;3.53;3.03;;;;;;;;;;5032918;28;20053;-73
2023/01/13 04:33:11;;;;;;;3.35;3.05;;;;;;;;;;5032840;28;20037;-73
2023/01/13 04:35:36;;;;;;;2.95;2.75;;;;;;;;;;5036618;28;20580;-71
2023/01/13 04:38:03;;;;;;;3.30;2.80;;;;;;;;;;5036709;28;20050;-71
2023/01/13 04:40:28;;;;;;;3.40;3.10;;;;;;;;;;5036517;28;20043;-70
2023/01/13 04:42:53;;;;;;;3.15;2.70;;;;;;;;;;5036639;28;20037;-70
2023/01/13 04:45:18;;;;;;;3.20;2.80;;;;;;;;;;5036769;28;20025;-70
2023/01/13 04:47:44;;;;;;;3.88;3.45;;;;;;;;;;5036451;28;20037;-70
2023/01/13 04:50:10;;;;;;;3.22;3.03;;;;;;;;;;5035266;28;20057;-73
2023/01/13 04:52:37;;;;;;;3.42;3.05;;;;;;;;;;5036393;28;20045;-70
2023/01/13 04:55:02;;;;;;;3.72;2.90;;;;;;;;;;5036411;28;20038;-70
2023/01/13 04:57:28;;;;;;;4.00;3.60;;;;;;;;;;5035448;28;20056;-71
2023/01/13 04:59:53;;;;;;;5.50;2.97;;;;;;;;;;5036520;28;20045;-71
2023/01/13 05:02:18;;;;;;;2.88;2.67;;;;;;;;;;5036424;28;20044;-71
2023/01/13 05:04:47;;;;;;;3.67;2.80;;;;;;;;;;5035193;28;20045;-71
2023/01/13 05:07:13;;;;;;;3.70;3.40;;;;;;;;;;5036438;28;20084;-71
2023/01/13 05:09:38;;;;;;;3.35;3.05;;;;;;;;;;5036413;28;20132;-70
2023/01/13 05:17:31;;;;;;;3.75;3.05;;;;;;;;;;5033595;28;20061;-69
2023/01/13 05:19:57;;;;;;;3.33;2.97;;;;;;;;;;5036250;28;20049;-66
2023/01/13 05:25:21;;;;;;;2.55;2.38;;;;;;;;;;5032962;28;20041;-65
2023/01/13 05:27:47;;;;;;;2.78;2.47;;;;;;;;;;5029806;28;20550;-68
2023/01/13 05:30:12;;;;;;;2.65;2.45;;;;;;;;;;5031591;28;20057;-69
2023/01/13 05:32:38;;;;;;;2.63;2.47;;;;;;;;;;5032712;28;20073;-69
2023/01/13 05:35:03;;;;;;;2.58;2.38;;;;;;;;;;5031528;28;20041;-68
2023/01/13 05:37:29;;;;;;;2.58;2.45;;;;;;;;;;5031411;28;20401;-68
2023/01/13 05:45:23;;;;;;;3.05;2.78;;;;;;;;;;5029905;28;20038;-67
2023/01/13 05:47:48;;;;;;;2.60;2.40;;;;;;;;;;5033545;28;20120;-69
2023/01/13 05:50:14;;;;;;;3.55;2.53;;;;;;;;;;5033500;28;20134;-71
2023/01/13 05:52:40;;;;;;;2.65;2.45;;;;;;;;;;5033181;28;20048;-70
2023/01/13 05:55:06;;;;;;;3.50;2.45;;;;;;;;;;5033122;28;20476;-70
2023/01/13 05:57:31;;;;;;;3.75;3.25;;;;;;;;;;5031870;28;20133;-70
2023/01/13 05:59:56;;;;;;;3.05;2.85;;;;;;;;;;5034379;28;20512;-69
2023/01/13 06:02:22;;;;;;;3.17;2.92;;;;;;;;;;5033034;28;20197;-65
2023/01/13 06:04:47;;;;;;;3.05;2.85;;;;;;;;;;5034389;28;20034;-67
2023/01/13 06:07:12;;;;;;;3.22;3.03;;;;;;;;;;5033088;28;20045;-67
2023/01/13 06:09:38;;;;;;;3.17;2.83;;;;;;;;;;5034193;28;20037;-68
2023/01/13 06:12:03;;;;;;;3.28;2.90;;;;;;;;;;5031234;28;20088;-68
2023/01/13 06:14:38;;;;;;;4.78;2.65;;;;;;;;;;5029767;28;20595;-68
2023/01/13 06:17:13;;;;;;;3.75;3.33;;;;;;;;;;5029639;28;20409;-68
2023/01/13 06:19:39;;;;;;;3.08;2.88;;;;;;;;;;5032731;28;20037;-68
2023/01/13 06:22:09;;;;;;;3.25;2.53;;;;;;;;;;5034148;28;20524;-66
2023/01/13 06:24:35;;;;;;;3.60;3.30;;;;;;;;;;5035117;28;20030;-61
2023/01/13 06:27:00;;;;;;;3.88;3.03;;;;;;;;;;5035379;28;20179;-61
2023/01/13 06:29:25;;;;;;;2.88;2.63;;;;;;;;;;5033635;28;20036;-61
2023/01/13 06:31:51;;;;;;;2.90;2.70;;;;;;;;;;5035276;28;20025;-61
2023/01/13 06:34:16;;;;;;;2.47;2.30;;;;;;;;;;5034846;28;20046;-62
2023/01/13 06:36:46;;;;;;;3.10;2.90;;;;;;;;;;5034953;28;20041;-62
2023/01/13 06:39:14;;;;;;;2.70;2.53;;;;;;;;;;5035168;28;20042;-62
2023/01/13 06:44:24;;;;;;;2.63;2.42;;;;;;;;;;5032748;28;20030;-62
2023/01/13 06:46:50;;;;;;;3.00;2.80;;;;;;;;;;5033594;28;20112;-62
2023/01/13 06:49:15;;;;;;;2.63;2.40;;;;;;;;;;5031132;28;20076;-62
2023/01/13 06:51:41;;;;;;;2.95;2.75;;;;;;;;;;5032624;28;20038;-62
2023/01/13 06:54:06;;;;;;;2.03;1.92;;;;;;;;;;5032583;28;20048;-62
2023/01/13 06:56:31;;;;;;;3.05;2.85;;;;;;;;;;5032386;28;20374;-62
2023/01/13 06:58:56;;;;;;;2.70;2.50;;;;;;;;;;5032398;28;20041;-62
2023/01/13 07:01:22;;;;;;;2.83;2.63;;;;;;;;;;5032188;28;20083;-62
2023/01/13 07:03:47;;;;;;;3.50;2.53;;;;;;;;;;5032420;28;20040;-62
2023/01/13 07:06:12;;;;;;;3.33;2.92;;;;;;;;;;5032374;28;20463;-62
2023/01/13 07:08:38;;;;;;;2.85;2.65;;;;;;;;;;5033464;28;20053;-62
2023/01/13 07:11:03;;;;;;;3.95;2.92;;;;;;;;;;5034508;28;20033;-62
2023/01/13 07:16:12;;;;;;;3.47;3.22;;;;;;;;;;5034359;28;20034;-62
2023/01/13 07:18:38;;;;;;;3.42;3.13;;;;;;;;;;5033999;28;20044;-62
2023/01/13 07:21:04;;;;;;;2.78;2.58;;;;;;;;;;5032907;28;20083;-62
2023/01/13 07:23:32;;;;;;;3.25;2.55;;;;;;;;;;5033983;28;20033;-62
2023/01/13 07:25:58;;;;;;;3.28;3.00;;;;;;;;;;5033916;28;20132;-62
2023/01/13 07:28:24;;;;;;;2.28;1.85;;;;;;;;;;5033931;28;20065;-62
2023/01/13 07:30:50;;;;;;;2.83;2.63;;;;;;;;;;5033893;28;20132;-62
2023/01/13 07:33:17;;;;;;;3.22;2.55;;;;;;;;;;5034193;28;20116;-62
2023/01/13 07:35:42;;;;;;;3.95;3.50;;;;;;;;;;5016208;28;20428;-62
2023/01/13 07:38:08;;;;;;;3.22;2.92;;;;;;;;;;5033778;28;20117;-62
2023/01/13 07:40:33;;;;;;;3.63;3.00;;;;;;;;;;5033760;28;20033;-62
2023/01/13 07:45:42;;;;;;;3.15;2.85;;;;;;;;;;5033973;28;20037;-62
2023/01/13 07:48:08;;;;;;;4.78;3.10;;;;;;;;;;5033946;28;20033;-62
2023/01/13 07:50:33;;;;;;;4.05;3.25;;;;;;;;;;5033670;28;20499;-62
2023/01/13 07:52:58;;;;;;;3.88;3.20;;;;;;;;;;5033904;28;20025;-62
2023/01/13 07:55:23;;;;;;;3.35;3.03;;;;;;;;;;5062249;23;20053;-62
2023/01/13 07:57:49;;;;;;;4.07;3.30;;;;;;;;;;5069702;22;20107;-67
2023/01/13 08:00:14;;;;;;;3.60;3.13;;;;;;;;;;5047861;23;20053;-62
2023/01/13 08:02:40;;;;;;;3.90;3.47;;;;;;;;;;5033574;28;20474;-62
2023/01/13 08:05:06;;;;;;;5.43;3.88;;;;;;;;;;5033786;28;20026;-62
2023/01/13 08:07:31;;;;;;;4.28;3.03;;;;;;;;;;5034046;28;20485;-62
2023/01/13 08:09:57;;;;;;;3.92;2.63;;;;;;;;;;5036525;28;20045;-62
2023/01/13 08:15:08;;;;;;;7.43;4.70;;;;;;;;;;5037431;28;20523;-62
2023/01/13 08:17:34;;;;;;;12.65;6.22;;;;;;;;;;5037724;28;20112;-62
2023/01/13 08:19:59;;;;;;;13.68;6.38;;;;;;;;;;5037402;28;20124;-62
2023/01/13 08:22:25;;;;;;;7.60;4.13;;;;;;;;;;5037664;28;20483;-62
2023/01/13 08:24:53;;;;;;;9.85;4.95;;;;;;;;;;5037312;28;20088;-62
2023/01/13 08:27:19;;;;;;;5.15;3.28;;;;;;;;;;5036018;28;20481;-62
2023/01/13 08:29:44;;;;;;;8.35;4.35;;;;;;;;;;5035985;28;20540;-62
2023/01/13 08:32:09;;;;;;;8.63;4.75;;;;;;;;;;5037182;28;20117;-62
2023/01/13 08:34:35;;;;;;;11.95;5.45;;;;;;;;;;5037414;28;20080;-62
2023/01/13 08:37:00;;;;;;;6.93;4.28;;;;;;;;;;5037137;28;20037;-62
2023/01/13 08:39:25;;;;;;;6.55;4.55;;;;;;;;;;5036995;28;20041;-62
2023/01/13 08:41:54;;;;;;;10.77;5.75;;;;;;;;;;5037073;28;20042;-62
2023/01/13 08:44:19;;;;;;;8.10;4.75;;;;;;;;;;5037500;28;20075;-62
2023/01/13 08:46:44;;;;;;;11.18;5.88;;;;;;;;;;5036827;28;20116;-62
2023/01/13 08:49:10;;;;;;;8.63;4.93;;;;;;;;;;5035604;28;20134;-62
2023/01/13 08:51:35;;;;;;;3.78;3.38;;;;;;;;;;5036810;28;20045;-62
2023/01/13 08:54:01;;;;;;;5.78;3.45;;;;;;;;;;5037109;28;20041;-62
2023/01/13 08:56:26;;;;;;;7.45;4.93;;;;;;;;;;5036757;28;20034;-62
2023/01/13 08:58:52;;;;;;;5.75;4.05;;;;;;;;;;5036720;28;20584;-62
2023/01/13 09:01:19;;;;;;;8.95;5.63;;;;;;;;;;5036633;28;20034;-62
2023/01/13 09:03:45;;;;;;;6.07;4.28;;;;;;;;;;5036619;28;20044;-62
2023/01/13 09:06:10;;;;;;;4.88;3.80;;;;;;;;;;5036564;28;20042;-62
2023/01/13 09:08:35;;;;;;;4.57;4.05;;;;;;;;;;5036518;28;20059;-62
2023/01/13 09:13:10;;;;;;;4.75;3.85;;;;;;;;;;5035275;28;20029;-62
2023/01/13 09:13:46;;;;;;;3.83;3.10;;;;;;;;;;5036702;28;20099;-62
2023/01/13 09:16:11;;;;;;;4.28;3.10;;;;;;;;;;5036409;28;20038;-62
2023/01/13 09:18:36;;;;;;;3.60;3.25;;;;;;;;;;5036259;28;20030;-62
2023/01/13 09:21:02;;;;;;;2.25;2.05;;;;;;;;;;5034976;28;20440;-62
2023/01/13 09:23:27;;;;;;;3.38;2.95;;;;;;;;;;5036544;28;20052;-62
2023/01/13 09:25:52;;;;;;;3.25;2.47;;;;;;;;;;5035631;28;20034;-62
2023/01/13 09:28:18;;;;;;;3.50;2.85;;;;;;;;;;5036211;28;20458;-62
2023/01/13 09:30:43;;;;;;;3.25;2.65;;;;;;;;;;5034874;28;20037;-62
2023/01/13 09:35:56;;;;;;;5.03;2.60;;;;;;;;;;5036012;28;20049;-62
2023/01/13 09:38:22;;;;;;;2.95;2.20;;;;;;;;;;5035131;28;20041;-62
2023/01/13 09:40:48;;;;;;;2.95;2.55;;;;;;;;;;5035873;28;20044;-62
2023/01/13 09:46:04;;;;;;;2.65;2.45;;;;;;;;;;5036089;28;20029;-62
2023/01/13 09:48:50;;;;;;;3.13;2.22;;;;;;;;;;5035821;28;20036;-62
2023/01/13 09:51:42;;;;;;;2.22;2.03;;;;;;;;;;5034487;28;20085;-62
2023/01/13 09:54:15;;;;;;;2.50;2.30;;;;;;;;;;5031753;28;20030;-62
2023/01/13 09:56:40;;;;;;;2.60;2.38;;;;;;;;;;5035972;28;20052;-62
2023/01/13 09:59:07;;;;;;;2.40;2.05;;;;;;;;;;5034113;28;20042;-62
2023/01/13 10:02:05;;;;;;;3.25;2.50;;;;;;;;;;5035540;28;20456;-62
2023/01/13 10:04:30;;;;;;;1.83;1.73;;;;;;;;;;4991645;28;20064;-62
2023/01/13 10:06:58;;;;;;;2.42;2.22;;;;;;;;;;5035438;28;20056;-62
2023/01/13 10:09:31;;;;;;;1.15;1.08;;;;;;;;;;5035451;28;20077;-62
2023/01/13 10:14:45;;;;;;;2.13;1.83;;;;;;;;;;5035545;28;20547;-62
2023/01/13 10:17:19;;;;;;;2.22;2.10;;;;;;;;;;5035539;28;20048;-62
2023/01/13 10:20:03;;;;;;;2.63;2.05;;;;;;;;;;5035367;28;20057;-62
2023/01/13 10:22:48;;;;;;;2.88;2.10;;;;;;;;;;5034530;28;20045;-62
2023/01/13 10:25:19;;;;;;;4.97;2.25;;;;;;;;;;5035600;28;20037;-62
2023/01/13 10:27:48;;;;;;;2.22;2.03;;;;;;;;;;5033897;28;20029;-62
2023/01/13 10:30:16;;;;;;;2.58;1.70;;;;;;;;;;5033853;28;20127;-62
2023/01/13 10:33:07;;;;;;;2.22;2.13;;;;;;;;;;5034847;28;20045;-62
2023/01/13 10:35:52;;;;;;;1.80;1.70;;;;;;;;;;5030924;28;20044;-62
2023/01/13 10:38:24;;;;;;;1.15;1.10;;;;;;;;;;5035167;28;20033;-62
2023/01/13 10:41:00;;;;;;;1.95;1.85;;;;;;;;;;5035033;28;20389;-62
2023/01/13 10:43:27;;;;;;;2.97;1.90;;;;;;;;;;5034771;28;20397;-62
2023/01/13 10:45:57;;;;;;;1.83;1.27;;;;;;;;;;5034667;28;20048;-62
2023/01/13 10:48:30;;;;;;;1.27;1.13;;;;;;;;;;5034671;28;20370;-62
2023/01/13 10:50:55;;;;;;;2.60;1.67;;;;;;;;;;5034620;28;20037;-62
2023/01/13 10:53:25;;;;;;;2.88;1.95;;;;;;;;;;5034857;28;20088;-62
2023/01/13 10:56:00;;;;;;;2.88;1.80;;;;;;;;;;5034472;28;20053;-62
2023/01/13 10:58:26;;;;;;;1.60;1.33;;;;;;;;;;5034926;28;20041;-63
2023/01/13 11:01:00;;;;;;;2.33;1.67;;;;;;;;;;5034379;28;20099;-62
2023/01/13 11:03:26;;;;;;;1.70;1.60;;;;;;;;;;5033109;28;20128;-62
2023/01/13 11:05:59;;;;;;;3.20;1.95;;;;;;;;;;5034883;28;20021;-62
2023/01/13 11:08:40;;;;;;;1.80;1.48;;;;;;;;;;5034276;28;20037;-62
2023/01/13 11:11:26;;;;;;;1.00;0.90;;;;;;;;;;5034481;28;20043;-62
2023/01/13 11:16:38;;;;;;;1.65;1.30;;;;;;;;;;5034420;28;20061;-62
2023/01/13 11:19:13;;;;;;;1.63;1.48;;;;;;;;;;5034046;28;20469;-62
2023/01/13 11:21:48;;;;;;;1.15;1.08;;;;;;;;;;5034102;28;20041;-62
2023/01/13 11:24:35;;;;;;;1.75;1.65;;;;;;;;;;5034301;28;20049;-62
2023/01/13 11:27:03;;;;;;;1.63;1.48;;;;;;;;;;5034316;28;20080;-62
2023/01/13 11:29:47;;;;;;;0.82;0.82;;;;;;;;;;5033938;28;20466;-62
2023/01/13 11:32:17;;;;;;;2.28;2.08;;;;;;;;;;5034145;28;20056;-62
2023/01/13 11:34:44;;;;;;;1.70;1.60;;;;;;;;;;5033913;28;20073;-62
2023/01/13 11:37:16;;;;;;;2.58;1.50;;;;;;;;;;5032988;28;20049;-62
2023/01/13 11:39:52;;;;;;;0.77;0.70;;;;;;;;;;5032859;28;20041;-61
2023/01/13 11:42:23;;;;;;;1.98;1.85;;;;;;;;;;5034078;28;20034;-62
2023/01/13 11:44:57;;;;;;;1.58;1.48;;;;;;;;;;5033060;28;20041;-61
2023/01/13 11:47:23;;;;;;;2.10;1.90;;;;;;;;;;5033934;28;20366;-62
2023/01/13 11:49:48;;;;;;;1.85;1.65;;;;;;;;;;5032436;28;20132;-62
2023/01/13 11:52:18;;;;;;;1.60;1.45;;;;;;;;;;5032935;28;20030;-62
2023/01/13 11:54:52;;;;;;;2.75;1.98;;;;;;;;;;5033606;28;20412;-62
2023/01/13 11:57:29;;;;;;;2.78;1.98;;;;;;;;;;5033560;28;20080;-62
2023/01/13 11:59:54;;;;;;;1.85;1.35;;;;;;;;;;5033425;28;20545;-62
2023/01/13 12:02:49;;;;;;;3.05;2.33;;;;;;;;;;5033551;28;20116;-62
2023/01/13 12:05:47;;;;;;;3.28;2.33;;;;;;;;;;5011121;28;20045;-62
2023/01/13 12:08:24;;;;;;;1.88;1.77;;;;;;;;;;4978832;28;20048;-62
2023/01/13 12:11:08;;;;;;;1.98;1.55;;;;;;;;;;5034021;28;20116;-62
2023/01/13 12:13:33;;;;;;;3.13;2.38;;;;;;;;;;5032141;28;20404;-62
2023/01/13 12:16:02;;;;;;;3.35;2.45;;;;;;;;;;5033641;28;20042;-62
2023/01/13 12:18:31;;;;;;;2.88;1.92;;;;;;;;;;5032175;28;20034;-62
2023/01/13 12:21:16;;;;;;;1.73;1.63;;;;;;;;;;5033620;28;20069;-62
2023/01/13 12:23:42;;;;;;;0.90;0.88;;;;;;;;;;5033932;28;20034;-62
2023/01/13 12:26:09;;;;;;;3.55;1.92;;;;;;;;;;5033293;28;20482;-62
2023/01/13 12:28:40;;;;;;;2.35;2.15;;;;;;;;;;5034116;28;20373;-62
2023/01/13 12:31:06;;;;;;;;;;;;;;;;;;5033723;28;20041;-62
2023/01/13 12:33:40;;;;;;;2.65;2.28;;;;;;;;;;5033825;28;19909;-62
2023/01/13 12:36:21;;;;;;;2.50;2.30;;;;;;;;;;5033438;28;20040;-62
2023/01/13 12:38:57;;;;;;;2.83;2.55;;;;;;;;;;5033424;28;20088;-62
2023/01/13 12:41:31;;;;;;;2.20;2.08;;;;;;;;;;5033204;28;20037;-62
2023/01/13 12:46:43;;;;;;;2.65;2.42;;;;;;;;;;5033120;28;20057;-62
2023/01/13 12:49:19;;;;;;;2.47;2.28;;;;;;;;;;5031896;28;20064;-62
2023/01/13 12:51:50;;;;;;;2.38;2.10;;;;;;;;;;5050983;23;20413;-62
2023/01/13 12:57:23;;;;;;;3.83;2.67;;;;;;;;;;4995233;28;20387;-67
2023/01/13 13:00:11;;;;;;;2.53;2.33;;;;;;;;;;4997509;28;20046;-67
2023/01/13 13:02:38;;;;;;;2.17;2.00;;;;;;;;;;4997835;28;20053;-67
2023/01/13 13:05:12;;;;;;;2.60;1.83;;;;;;;;;;4996002;28;20100;-67
2023/01/13 13:07:48;;;;;;;3.33;2.92;;;;;;;;;;4997506;28;20077;-67
2023/01/13 13:10:16;;;;;;;3.10;2.28;;;;;;;;;;4979730;28;20046;-67
2023/01/13 13:15:27;;;;;;;3.78;2.65;;;;;;;;;;4997340;28;20070;-67
2023/01/13 13:18:32;;;;;;;4.28;2.35;;;;;;;;;;4997576;28;20443;-67
2023/01/13 13:21:01;;;;;;;2.08;1.88;;;;;;;;;;4940160;29;20502;-67
2023/01/13 13:23:27;;;;;;;2.38;2.17;;;;;;;;;;4956440;29;20051;-67
2023/01/13 13:26:06;;;;;;;2.17;1.88;;;;;;;;;;4976620;28;20398;-67
2023/01/13 13:28:35;;;;;;;2.47;2.30;;;;;;;;;;4979370;28;20096;-67
2023/01/13 13:31:09;;;;;;;2.47;2.28;;;;;;;;;;4997055;28;20034;-67
2023/01/13 13:33:34;;;;;;;2.80;2.45;;;;;;;;;;4996704;28;20049;-67
2023/01/13 13:36:12;;;;;;;4.07;2.55;;;;;;;;;;4996706;28;20022;-67
2023/01/13 13:47:08;;;;;;;3.35;2.80;;;;;;;;;;4996745;28;20050;-69
2023/01/13 13:49:41;;;;;;;2.45;1.67;;;;;;;;;;4996961;28;20054;-69
2023/01/13 13:52:13;;;;;;;2.53;2.25;;;;;;;;;;4996338;28;20050;-69
2023/01/13 13:54:40;;;;;;;2.50;2.30;;;;;;;;;;4995226;28;20483;-69
2023/01/13 13:57:14;;;;;;;3.28;2.97;;;;;;;;;;5028452;28;20046;-69
2023/01/13 13:59:40;;;;;;;3.08;2.80;;;;;;;;;;5015750;28;20137;-68
2023/01/13 14:02:13;;;;;;;2.97;2.78;;;;;;;;;;5016073;28;20113;-66
2023/01/13 14:04:39;;;;;;;4.88;3.13;;;;;;;;;;5015742;28;20052;-66
2023/01/13 14:07:19;;;;;;;2.63;2.25;;;;;;;;;;5015246;28;20481;-67
2023/01/13 14:09:46;;;;;;;2.90;2.15;;;;;;;;;;5015940;28;20042;-69
2023/01/13 14:12:19;;;;;;;1.67;1.55;;;;;;;;;;5015915;28;20077;-69
2023/01/13 14:14:46;;;;;;;5.85;3.53;;;;;;;;;;5015836;28;20034;-69
2023/01/13 14:17:19;;;;;;;3.63;3.28;;;;;;;;;;5030741;28;20092;-69
2023/01/13 14:19:49;;;;;;;2.38;2.15;;;;;;;;;;5015677;28;20501;-69
2023/01/13 14:22:15;;;;;;;;;;;;;;;;;;5015825;28;20460;-68
2023/01/13 14:24:44;;;;;;;4.13;2.28;;;;;;;;;;5030633;28;20001;-67
2023/01/13 14:27:13;;;;;;;4.85;3.30;;;;;;;;;;5015300;28;20053;-67
2023/01/13 14:29:38;;;;;;;4.78;3.42;;;;;;;;;;5015541;28;20053;-67
2023/01/13 14:32:05;;;;;;;3.45;3.15;;;;;;;;;;5015495;28;20117;-67
2023/01/13 14:34:31;;;;;;;4.10;3.00;;;;;;;;;;5030358;28;20429;-67
2023/01/13 14:36:57;;;;;;;3.10;2.75;;;;;;;;;;5015171;28;20044;-67
2023/01/13 14:39:24;;;;;;;3.25;2.92;;;;;;;;;;5014952;28;20074;-67
2023/01/13 14:41:51;;;;;;;2.92;2.35;;;;;;;;;;5015218;28;20041;-68
2023/01/13 14:44:17;;;;;;;3.85;3.05;;;;;;;;;;5014918;28;20037;-67
2023/01/13 14:46:43;;;;;;;4.03;3.13;;;;;;;;;;5014871;28;20030;-67
2023/01/13 14:49:32;;;;;;;18.92;8.93;;;;;;;;;;5015168;28;20116;-67
2023/01/13 14:52:05;;;;;;;10.57;6.57;;;;;;;;;;5004559;28;20152;-67
2023/01/13 14:54:42;;;;;;;5.13;4.13;;;;;;;;;;5015111;28;20072;-67
2023/01/13 14:57:15;;;;;;;8.30;6.75;;;;;;;;;;5015172;28;20374;-67
2023/01/13 14:59:54;;;;;;;7.18;5.13;;;;;;;;;;5014264;28;20038;-67
2023/01/13 15:02:28;;;;;;;6.80;5.38;;;;;;;;;;5014547;28;20034;-67
2023/01/13 15:04:57;;;;;;;3.90;3.22;;;;;;;;;;5015225;28;20489;-67
2023/01/13 15:07:27;;;;;;;6.03;5.10;;;;;;;;;;5014643;28;20397;-67
2023/01/13 15:09:53;;;;;;;5.97;3.72;;;;;;;;;;5014562;28;20064;-67
2023/01/13 15:12:38;;;;;;;4.95;3.35;;;;;;;;;;5014463;28;20436;-67
2023/01/13 15:15:05;;;;;;;4.15;3.75;;;;;;;;;;5014805;28;20363;-70
2023/01/13 15:17:30;;;;;;;3.65;3.35;;;;;;;;;;5013171;28;20049;-68
2023/01/13 15:19:56;;;;;;;3.75;3.42;;;;;;;;;;5014308;28;20057;-67
2023/01/13 15:22:22;;;;;;;6.07;4.47;;;;;;;;;;5014586;28;20069;-68
2023/01/13 15:24:48;;;;;;;5.45;4.10;;;;;;;;;;5014434;28;20076;-67
2023/01/13 15:27:18;;;;;;;5.13;4.15;;;;;;;;;;5014193;28;20041;-70
2023/01/13 15:29:43;;;;;;;3.60;3.28;;;;;;;;;;5014431;28;20092;-68
2023/01/13 15:32:19;;;;;;;4.57;3.03;;;;;;;;;;5014414;28;20030;-69
2023/01/13 15:34:45;;;;;;;4.28;3.90;;;;;;;;;;5013144;28;20073;-69
2023/01/13 15:37:12;;;;;;;5.30;4.10;;;;;;;;;;5014170;28;20037;-68
2023/01/13 15:39:37;;;;;;;5.90;3.60;;;;;;;;;;5014099;28;20049;-68
2023/01/13 15:47:30;;;;;;;5.05;3.95;;;;;;;;;;5013663;28;20050;-68
2023/01/13 15:49:55;;;;;;;5.75;4.07;;;;;;;;;;5013933;28;20034;-65
2023/01/13 15:52:25;;;;;;;4.07;3.70;;;;;;;;;;5013884;28;20473;-64
2023/01/13 15:54:51;;;;;;;3.65;3.33;;;;;;;;;;5013635;28;20038;-65
2023/01/13 15:57:21;;;;;;;3.60;3.30;;;;;;;;;;5013855;28;20124;-64
2023/01/13 15:59:47;;;;;;;5.82;4.30;;;;;;;;;;5013753;28;20084;-64
2023/01/13 16:02:17;;;;;;;5.28;4.35;;;;;;;;;;5013913;28;20030;-64
2023/01/13 16:04:44;;;;;;;4.72;3.65;;;;;;;;;;5012483;28;20391;-64